Inman, Kansas
Current Conditions -  °F | °C
As of 12:52 PM on Thursday 23 Oct 2014 (Local Time) from KHUT Reporting Station
Scattered Clouds Scattered Clouds  
Wind Chill: 72°   Ceiling: Unl
Heat Index: 72°   Visibility: 10mi
Dew Point: 59°   Wind: 6mph
Humidity: 64%   Direction: 180°S
Pressure: 30.09"   Gusts: NA
Location:  38.23°N, 97.77°W
Report Text: KHUT 231752Z 18005KT 10SM SCT019 22/15 A3009 RMK AO2 SLP172 T02220150 10222 20161 58004
Loading
Personal Weather Stations






























Interactive Weather Map
Tropical Storm Tracking
New forecast layout! Learn more

10-Day Weather Forecast

Advertisements
Track Severe Weather on mobile